Time;durP1;ratioP1;P1;durP2;ratioP2;P2;SDS_P1;SDS_P2;PMS_P1;PMS_P2;Temp;Humidity;BMP_temperature;BMP_pressure;BME280_temperature;BME280_humidity;BME280_pressure;Samples;Min_cycle;Max_cycle;Signal;HPM_P1;HPM_P2
2023/04/16 00:00:08;;;;;;;16.63;5.75;;;;;;;8.05;100.00;102113.13;5017950;28;20037;-82
2023/04/16 00:02:37;;;;;;;16.85;5.18;;;;;;;8.01;100.00;102106.13;5033856;28;20045;-83
2023/04/16 00:05:04;;;;;;;14.45;5.45;;;;;;;7.99;100.00;102107.94;5034970;28;20052;-81
2023/04/16 00:07:30;;;;;;;13.00;5.28;;;;;;;8.10;100.00;102113.00;5036649;28;20028;-83
2023/04/16 00:09:56;;;;;;;16.95;4.82;;;;;;;8.06;100.00;102104.22;5004440;28;20567;-82
2023/04/16 00:12:23;;;;;;;14.23;5.03;;;;;;;8.09;100.00;102103.31;5008953;28;20049;-83
2023/04/16 00:14:49;;;;;;;10.70;4.78;;;;;;;8.06;100.00;102104.22;5016748;28;20048;-82
2023/04/16 00:17:15;;;;;;;17.33;4.93;;;;;;;8.07;100.00;102108.66;5025237;28;20466;-82
2023/04/16 00:19:41;;;;;;;16.08;4.75;;;;;;;8.05;100.00;102104.25;5005715;28;20405;-82
2023/04/16 00:22:08;;;;;;;14.65;5.40;;;;;;;8.04;100.00;102106.06;5027188;28;20029;-82
2023/04/16 00:24:34;;;;;;;14.55;4.97;;;;;;;8.01;100.00;102100.81;5029429;28;20512;-83
2023/04/16 00:27:00;;;;;;;16.60;6.15;;;;;;;8.07;100.00;102100.69;5012667;28;20531;-82
2023/04/16 00:29:29;;;;;;;13.23;4.68;;;;;;;8.09;100.00;102104.16;5024712;28;20028;-82
2023/04/16 00:31:56;;;;;;;16.73;4.65;;;;;;;8.07;100.00;102108.66;5018917;28;20037;-82
2023/04/16 00:34:25;;;;;;;14.23;4.65;;;;;;;8.09;100.00;102104.16;5017546;28;20037;-84
2023/04/16 00:36:51;;;;;;;12.45;4.40;;;;;;;8.10;100.00;102111.22;5016740;28;20570;-82
2023/04/16 00:39:17;;;;;;;14.80;5.20;;;;;;;8.09;100.00;102096.19;5020557;28;20390;-83
2023/04/16 00:41:44;;;;;;;12.68;4.60;;;;;;;8.13;100.00;102095.19;5021873;28;20029;-82
2023/04/16 00:44:10;;;;;;;13.73;5.25;;;;;;;8.14;100.00;102094.28;5029328;28;20206;-83
2023/04/16 00:46:37;;;;;;;17.55;5.65;;;;;;;8.05;100.00;102097.19;5024001;28;20033;-83
2023/04/16 00:49:03;;;;;;;14.98;5.18;;;;;;;8.10;100.00;102097.06;5014993;28;20410;-82
2023/04/16 00:51:30;;;;;;;11.68;5.13;;;;;;;8.12;100.00;102097.88;5020388;28;20028;-82
2023/04/16 00:53:57;;;;;;;12.77;6.20;;;;;;;8.13;100.00;102102.31;5021474;28;20040;-82
2023/04/16 00:56:25;;;;;;;10.30;5.25;;;;;;;8.19;100.00;102104.81;5016948;28;20069;-83
2023/04/16 00:58:51;;;;;;;10.65;5.80;;;;;;;8.09;100.00;102104.16;5010389;28;20033;-82
2023/04/16 01:01:18;;;;;;;15.88;6.85;;;;;;;8.11;100.00;102112.97;5017528;28;20072;-84
2023/04/16 01:03:46;;;;;;;16.45;6.93;;;;;;;8.12;100.00;102101.41;5028898;28;20040;-82
2023/04/16 01:06:13;;;;;;;20.30;7.32;;;;;;;8.17;100.00;102095.13;5017214;28;20497;-82
2023/04/16 01:08:39;;;;;;;17.13;7.07;;;;;;;8.22;100.00;102103.84;5012892;28;20037;-81
2023/04/16 01:11:06;;;;;;;14.18;6.88;;;;;;;8.20;100.00;102103.00;5023365;28;20044;-82
2023/04/16 01:13:32;;;;;;;11.40;7.00;;;;;;;8.19;100.00;102099.47;5055121;28;20051;-82
2023/04/16 01:15:59;;;;;;;13.55;6.90;;;;;;;8.16;100.00;102104.88;5043252;28;20112;-81
2023/04/16 01:18:29;;;;;;;11.63;6.93;;;;;;;8.25;100.00;102109.97;5014987;28;20041;-82
2023/04/16 01:20:56;;;;;;;15.02;7.05;;;;;;;8.26;100.00;102103.75;5029394;28;20056;-82
2023/04/16 01:23:22;;;;;;;16.15;8.02;;;;;;;8.28;100.00;102106.38;5014452;28;20036;-81
2023/04/16 01:25:48;;;;;;;13.02;7.38;;;;;;;8.24;100.00;102104.72;5030331;28;20067;-82
2023/04/16 01:28:15;;;;;;;20.00;8.48;;;;;;;8.17;100.00;102096.00;5020724;28;20036;-83
2023/04/16 01:30:43;;;;;;;20.77;8.32;;;;;;;8.17;100.00;102108.44;5028565;28;20033;-82
2023/04/16 01:33:20;;;;;;;18.88;8.07;;;;;;;8.25;100.00;102103.78;5011411;28;20092;-84
2023/04/16 01:35:47;;;;;;;22.35;9.98;;;;;;;8.28;100.00;102101.91;5029354;28;20034;-83
2023/04/16 01:38:15;;;;;;;13.15;8.10;;;;;;;8.24;100.00;102112.69;5000740;28;20499;-83
2023/04/16 01:40:41;;;;;;;18.10;9.00;;;;;;;8.25;100.00;102103.78;5028084;28;20040;-83
2023/04/16 01:43:07;;;;;;;16.88;8.30;;;;;;;8.26;100.00;102106.41;5011753;28;20036;-83
2023/04/16 01:45:35;;;;;;;15.65;9.43;;;;;;;8.29;100.00;102105.44;5002119;28;20458;-84
2023/04/16 01:48:02;;;;;;;16.17;8.85;;;;;;;8.34;100.00;102101.75;5013842;28;20056;-83
2023/04/16 01:50:29;;;;;;;16.48;7.80;;;;;;;8.34;100.00;102104.41;5018196;28;20549;-83
2023/04/16 01:52:55;;;;;;;18.95;8.35;;;;;;;8.33;100.00;102107.09;5018603;28;20048;-83
2023/04/16 01:55:22;;;;;;;18.02;7.82;;;;;;;8.29;100.00;102110.75;5027717;28;20074;-83
2023/04/16 01:57:48;;;;;;;15.43;7.32;;;;;;;8.33;100.00;102113.31;5027020;28;20037;-83
2023/04/16 02:00:15;;;;;;;18.23;7.35;;;;;;;8.30;100.00;102113.38;5025409;28;20044;-82
2023/04/16 02:02:48;;;;;;;19.60;7.15;;;;;;;8.35;100.00;102110.63;5020830;28;20047;-82
2023/04/16 02:05:22;;;;;;;18.27;7.88;;;;;;;8.33;100.00;102107.09;5011239;28;20042;-83
2023/04/16 02:07:48;;;;;;;17.67;7.40;;;;;;;8.30;100.00;102110.72;5026950;28;20131;-83
2023/04/16 02:10:16;;;;;;;18.23;7.25;;;;;;;8.31;100.00;102103.59;5035627;28;20497;-82
2023/04/16 02:12:42;;;;;;;15.48;7.95;;;;;;;8.36;100.00;102107.03;5013355;28;20041;-82
2023/04/16 02:15:09;;;;;;;18.50;8.10;;;;;;;8.28;100.00;102109.91;5020528;28;20030;-82
2023/04/16 02:17:35;;;;;;;15.18;7.70;;;;;;;8.27;100.00;102109.94;5020515;28;20052;-82
2023/04/16 02:20:10;;;;;;;19.65;8.73;;;;;;;8.30;100.00;102113.38;5017102;28;20047;-81
2023/04/16 02:22:42;;;;;;;17.98;8.35;;;;;;;8.27;100.00;102117.91;4995079;28;20037;-82
2023/04/16 02:25:13;;;;;;;21.08;8.23;;;;;;;8.34;100.00;102123.03;5029219;28;20033;-84
2023/04/16 02:27:39;;;;;;;20.48;8.40;;;;;;;8.26;100.00;102116.19;5030276;28;20095;-82
2023/04/16 02:30:21;;;;;;;19.65;8.70;;;;;;;8.28;100.00;102114.34;5016327;28;20136;-81
2023/04/16 02:32:48;;;;;;;23.73;8.63;;;;;;;8.25;100.00;102120.59;5027488;28;20044;-82
2023/04/16 02:35:15;;;;;;;22.98;8.73;;;;;;;8.25;100.00;102119.75;5021218;28;20672;-83
2023/04/16 02:37:42;;;;;;;17.23;8.35;;;;;;;8.19;100.00;102120.78;5021044;28;20043;-80
2023/04/16 02:40:08;;;;;;;23.23;9.15;;;;;;;8.23;100.00;102121.56;5003530;28;20037;-81
2023/04/16 02:42:35;;;;;;;24.88;9.32;;;;;;;8.25;100.00;102119.75;5034684;28;20045;-82
2023/04/16 02:45:02;;;;;;;21.10;10.10;;;;;;;8.31;100.00;102119.56;5025650;28;20061;-82
2023/04/16 02:47:28;;;;;;;26.33;10.48;;;;;;;8.26;100.00;102122.38;5009918;28;20037;-82
2023/04/16 02:49:54;;;;;;;19.17;9.77;;;;;;;8.27;100.00;102126.75;5030965;28;20069;-81
2023/04/16 02:52:20;;;;;;;19.58;9.77;;;;;;;8.22;100.00;102125.13;5010951;28;20076;-82
2023/04/16 02:54:47;;;;;;;19.27;10.43;;;;;;;8.19;100.00;102128.75;5004894;28;20175;-84
2023/04/16 02:57:13;;;;;;;22.38;9.27;;;;;;;8.20;100.00;102124.28;5016738;28;20032;-82
2023/04/16 02:59:39;;;;;;;20.00;9.48;;;;;;;8.17;100.00;102127.06;5017586;28;20095;-83
2023/04/16 03:02:06;;;;;;;28.23;10.95;;;;;;;8.21;100.00;102134.91;4979632;28;20037;-83
2023/04/16 03:04:32;;;;;;;19.63;10.80;;;;;;;8.22;100.00;102128.69;5012154;28;20145;-82
2023/04/16 03:06:59;;;;;;;22.40;9.98;;;;;;;8.20;100.00;102134.94;5013641;28;20029;-83
2023/04/16 03:09:25;;;;;;;24.70;10.63;;;;;;;8.18;100.00;102131.44;5007951;28;20039;-82
2023/04/16 03:11:52;;;;;;;31.75;12.77;;;;;;;8.22;100.00;102135.75;5018340;28;20044;-82
2023/04/16 03:14:18;;;;;;;25.15;11.23;;;;;;;8.20;100.00;102132.28;5016697;28;20041;-82
2023/04/16 03:16:44;;;;;;;24.33;11.95;;;;;;;8.18;100.00;102134.97;5032990;28;20144;-82
2023/04/16 03:19:11;;;;;;;23.27;12.10;;;;;;;8.20;100.00;102140.25;5029647;28;20040;-82
2023/04/16 03:21:37;;;;;;;30.17;12.20;;;;;;;8.19;100.00;102138.53;4994664;28;20426;-83
2023/04/16 03:24:03;;;;;;;36.58;12.70;;;;;;;8.23;100.00;102142.84;5028551;28;20397;-83
2023/04/16 03:26:29;;;;;;;31.55;12.98;;;;;;;8.20;100.00;102141.16;5010932;28;20056;-82
2023/04/16 03:28:56;;;;;;;28.48;14.70;;;;;;;8.12;100.00;102143.97;5018648;28;20029;-82
2023/04/16 03:31:25;;;;;;;33.17;14.48;;;;;;;8.23;100.00;102150.84;5013421;28;20068;-82
2023/04/16 03:33:52;;;;;;;30.07;14.57;;;;;;;8.24;100.00;102139.28;5023615;28;20044;-82
2023/04/16 03:36:19;;;;;;;52.75;16.73;;;;;;;8.19;100.00;102141.19;5020231;28;20029;-81
2023/04/16 03:38:46;;;;;;;29.98;15.48;;;;;;;8.24;100.00;102156.13;5022248;28;20037;-81
2023/04/16 03:41:13;;;;;;;31.80;15.80;;;;;;;8.12;100.00;102146.63;5022486;28;20029;-82
2023/04/16 03:43:40;;;;;;;35.63;16.70;;;;;;;8.13;100.00;102151.06;5031586;28;20106;-81
2023/04/16 03:46:06;;;;;;;38.08;16.10;;;;;;;8.12;100.00;102145.75;5015870;28;20053;-81
2023/04/16 03:48:33;;;;;;;42.83;16.80;;;;;;;8.18;100.00;102144.75;5012171;28;20034;-81
2023/04/16 03:50:59;;;;;;;33.20;17.77;;;;;;;8.17;100.00;102146.53;5022911;28;20055;-82
2023/04/16 03:53:26;;;;;;;45.45;19.63;;;;;;;8.19;100.00;102159.81;5014898;28;20041;-85
2023/04/16 03:55:52;;;;;;;45.35;18.05;;;;;;;8.19;100.00;102151.81;5013371;28;20490;-82
2023/04/16 03:58:20;;;;;;;42.22;18.35;;;;;;;8.18;100.00;102150.06;5019961;28;20060;-82
2023/04/16 04:00:47;;;;;;;47.92;20.38;;;;;;;8.09;100.00;102157.38;5016606;28;20778;-82
2023/04/16 04:03:18;;;;;;;49.10;20.20;;;;;;;8.06;100.00;102161.88;4995400;28;20057;-82
2023/04/16 04:05:46;;;;;;;47.53;21.38;;;;;;;8.06;100.00;102153.91;5005864;28;20100;-82
2023/04/16 04:08:16;;;;;;;52.13;21.58;;;;;;;8.08;100.00;102158.25;5001640;28;20033;-82
2023/04/16 04:10:42;;;;;;;45.30;21.55;;;;;;;8.05;100.00;102153.03;4998325;28;20047;-84
2023/04/16 04:13:10;;;;;;;54.17;21.20;;;;;;;8.02;100.00;102153.09;5016822;28;20037;-81
2023/04/16 04:15:37;;;;;;;51.15;21.40;;;;;;;8.09;100.00;102149.38;5014902;28;20052;-85
2023/04/16 04:18:03;;;;;;;47.92;20.58;;;;;;;8.07;100.00;102151.22;4995755;28;20052;-82
2023/04/16 04:20:29;;;;;;;44.97;21.13;;;;;;;8.07;100.00;102156.53;4997052;28;20037;-82
2023/04/16 04:22:56;;;;;;;46.83;21.33;;;;;;;8.08;100.00;102149.41;5021899;28;20434;-82
2023/04/16 04:25:25;;;;;;;49.45;20.63;;;;;;;8.11;100.00;102149.34;5025273;28;20434;-82
2023/04/16 04:27:51;;;;;;;42.22;19.90;;;;;;;8.08;100.00;102155.59;5004024;28;20029;-82
2023/04/16 04:30:17;;;;;;;45.72;21.52;;;;;;;8.08;100.00;102154.72;5010676;28;20414;-82
2023/04/16 04:32:44;;;;;;;61.70;24.30;;;;;;;8.03;100.00;102157.50;5021696;28;20029;-83
2023/04/16 04:35:10;;;;;;;57.40;23.63;;;;;;;8.02;100.00;102155.75;5008794;28;20125;-83
2023/04/16 04:37:37;;;;;;;54.35;25.50;;;;;;;8.03;100.00;102160.16;5004906;28;20394;-82
2023/04/16 04:40:11;;;;;;;58.85;25.60;;;;;;;8.04;100.00;102159.25;5009681;28;20029;-82
2023/04/16 04:42:39;;;;;;;69.53;27.52;;;;;;;8.09;100.00;102167.13;5008537;28;20038;-82
2023/04/16 04:45:05;;;;;;;71.45;28.73;;;;;;;8.06;100.00;102167.19;5010487;28;20490;-81
2023/04/16 04:47:33;;;;;;;75.78;28.40;;;;;;;8.00;100.00;102168.22;5012102;28;20094;-82
2023/04/16 04:49:59;;;;;;;78.78;32.05;;;;;;;8.01;100.00;102169.09;4985677;28;20042;-83
2023/04/16 04:52:30;;;;;;;84.07;29.02;;;;;;;8.06;100.00;102172.50;5011574;28;20082;-83
2023/04/16 04:54:56;;;;;;;83.03;31.02;;;;;;;8.06;100.00;102175.19;5023077;28;20438;-82
2023/04/16 04:57:22;;;;;;;85.38;32.05;;;;;;;8.06;100.00;102170.72;4974775;28;20086;-82
2023/04/16 04:59:53;;;;;;;82.43;32.42;;;;;;;8.08;100.00;102176.88;4992332;28;20087;-82
2023/04/16 05:02:19;;;;;;;94.78;31.88;;;;;;;8.06;100.00;102173.38;5009943;28;20037;-82
2023/04/16 05:04:45;;;;;;;90.70;33.97;;;;;;;8.07;100.00;102179.56;5022271;28;20302;-82
2023/04/16 05:07:11;;;;;;;84.80;32.30;;;;;;;8.05;100.00;102179.63;5006982;28;20056;-82
2023/04/16 05:09:38;;;;;;;88.93;33.72;;;;;;;8.12;100.00;102185.66;5013573;28;20041;-83
2023/04/16 05:12:04;;;;;;;87.03;34.97;;;;;;;8.10;100.00;102185.69;5028314;28;20120;-82
2023/04/16 05:14:30;;;;;;;89.85;32.80;;;;;;;8.12;100.00;102183.88;5020696;28;20600;-82
2023/04/16 05:16:56;;;;;;;79.82;33.00;;;;;;;8.08;100.00;102187.50;5019779;28;20077;-82
2023/04/16 05:19:24;;;;;;;84.00;32.13;;;;;;;8.12;100.00;102188.31;5023384;28;20066;-82
2023/04/16 05:21:50;;;;;;;83.75;30.55;;;;;;;8.06;100.00;102185.81;5008414;28;20104;-82
2023/04/16 05:24:16;;;;;;;89.07;29.73;;;;;;;8.09;100.00;102186.63;4992134;28;20395;-82
2023/04/16 05:26:43;;;;;;;82.57;30.55;;;;;;;8.16;100.00;102184.66;5022919;28;20042;-81
2023/04/16 05:29:09;;;;;;;81.90;30.40;;;;;;;8.13;100.00;102195.41;5024159;28;20403;-83
2023/04/16 05:31:35;;;;;;;73.10;29.30;;;;;;;8.10;100.00;102188.34;4993527;28;20041;-85
2023/04/16 05:34:01;;;;;;;86.75;31.13;;;;;;;8.19;100.00;102194.38;5012586;28;20021;-83
2023/04/16 05:36:28;;;;;;;66.50;28.42;;;;;;;8.20;100.00;102197.00;5006891;28;20033;-81
2023/04/16 05:38:54;;;;;;;76.68;29.95;;;;;;;8.17;100.00;102191.75;5025286;28;20079;-80
2023/04/16 05:41:20;;;;;;;71.13;30.23;;;;;;;8.25;100.00;102195.09;5022449;28;20033;-81
2023/04/16 05:43:46;;;;;;;72.03;29.67;;;;;;;8.23;100.00;102190.72;5007941;28;20053;-83
2023/04/16 05:46:14;;;;;;;74.05;29.92;;;;;;;8.28;100.00;102202.16;4994935;28;20549;-83
2023/04/16 05:48:40;;;;;;;75.35;28.77;;;;;;;8.20;100.00;102196.13;5014360;28;20049;-81
2023/04/16 05:51:07;;;;;;;80.28;29.05;;;;;;;8.23;100.00;102201.38;5022415;28;20465;-79
2023/04/16 05:53:33;;;;;;;73.32;28.83;;;;;;;8.22;100.00;102204.94;5021190;28;20109;-82
2023/04/16 05:55:59;;;;;;;69.25;28.77;;;;;;;8.20;100.00;102206.75;5028161;28;20033;-81
2023/04/16 05:58:25;;;;;;;75.55;27.73;;;;;;;8.29;100.00;102209.19;5029679;28;20049;-81
2023/04/16 06:00:52;;;;;;;71.88;28.15;;;;;;;8.30;100.00;102211.84;5008918;28;20087;-81
2023/04/16 06:03:18;;;;;;;59.53;26.38;;;;;;;8.28;100.00;102205.69;5022394;28;20061;-82
2023/04/16 06:05:45;;;;;;;57.13;25.33;;;;;;;8.32;100.00;102207.34;5020916;28;20029;-84
2023/04/16 06:08:12;;;;;;;62.60;25.90;;;;;;;8.35;100.00;102212.59;5021056;28;20037;-82
2023/04/16 06:10:38;;;;;;;55.38;25.23;;;;;;;8.36;100.00;102216.13;5026912;28;20047;-81
2023/04/16 06:13:04;;;;;;;51.53;23.50;;;;;;;8.35;100.00;102217.06;5029321;28;20405;-81
2023/04/16 06:15:31;;;;;;;55.70;24.67;;;;;;;8.42;100.00;102229.31;5026184;28;20037;-82
2023/04/16 06:17:57;;;;;;;55.17;22.13;;;;;;;8.38;100.00;102216.97;5009202;28;20446;-81
2023/04/16 06:20:24;;;;;;;51.78;22.77;;;;;;;8.44;100.00;102211.56;5028248;28;20065;-81
2023/04/16 06:22:50;;;;;;;50.30;21.55;;;;;;;8.42;100.00;102218.66;5027716;28;20037;-82
2023/04/16 06:25:16;;;;;;;46.55;21.58;;;;;;;8.43;100.00;102225.75;5009385;28;20038;-81
2023/04/16 06:27:44;;;;;;;57.40;22.00;;;;;;;8.42;100.00;102228.44;5010565;28;20483;-82
2023/04/16 06:30:14;;;;;;;45.42;20.58;;;;;;;8.54;100.00;102228.16;5021848;28;20401;-82
2023/04/16 06:32:42;;;;;;;56.95;22.25;;;;;;;8.53;100.00;102224.59;5018637;28;20037;-83
2023/04/16 06:35:09;;;;;;;45.70;22.92;;;;;;;8.51;100.00;102237.06;5003970;28;20027;-84
2023/04/16 06:37:35;;;;;;;42.90;20.90;;;;;;;8.54;100.00;102230.81;5020237;28;20072;-82
2023/04/16 06:40:01;;;;;;;46.33;23.55;;;;;;;8.52;100.00;102230.84;5020860;28;20042;-81
2023/04/16 06:42:28;;;;;;;53.10;23.27;;;;;;;8.58;100.00;102240.47;5016472;28;20057;-81
2023/04/16 06:44:54;;;;;;;45.55;21.10;;;;;;;8.52;100.00;102236.16;5023303;28;20033;-81
2023/04/16 06:47:20;;;;;;;45.30;20.50;;;;;;;8.53;100.00;102232.59;5008863;28;20033;-79
2023/04/16 06:49:47;;;;;;;39.63;19.88;;;;;;;8.62;100.00;102238.59;5018529;28;20426;-79
2023/04/16 06:52:13;;;;;;;38.45;20.05;;;;;;;8.56;100.00;102244.97;5019924;28;20589;-87
2023/04/16 06:54:39;;;;;;;45.63;20.98;;;;;;;8.57;100.00;102241.38;4989544;28;20038;-82
2023/04/16 06:57:06;;;;;;;54.88;22.20;;;;;;;8.54;100.00;102242.31;5021162;28;20045;-79
2023/04/16 06:59:32;;;;;;;52.30;21.67;;;;;;;8.57;100.00;102237.84;5011324;28;20561;-80
2023/04/16 07:01:58;;;;;;;51.10;21.17;;;;;;;8.64;100.00;102248.28;5026971;28;20477;-81
2023/04/16 07:04:24;;;;;;;48.85;22.42;;;;;;;8.58;100.00;102244.94;5028971;28;20489;-80
2023/04/16 07:06:50;;;;;;;43.05;21.77;;;;;;;8.61;100.00;102244.84;5000008;28;20052;-80
2023/04/16 07:09:17;;;;;;;43.15;20.45;;;;;;;8.67;100.00;102250.03;5032395;28;20044;-81
2023/04/16 07:11:44;;;;;;;40.17;21.40;;;;;;;8.71;100.00;102249.03;5029932;28;20475;-80
2023/04/16 07:14:10;;;;;;;33.58;19.20;;;;;;;8.71;100.00;102257.03;5031936;28;20119;-81
2023/04/16 07:16:36;;;;;;;45.80;21.55;;;;;;;8.76;100.00;102257.78;5028657;28;20417;-81
2023/04/16 07:19:03;;;;;;;47.35;20.88;;;;;;;8.81;100.00;102266.50;5031294;28;20052;-79
2023/04/16 07:21:30;;;;;;;37.22;19.00;;;;;;;8.84;100.00;102261.13;5033942;28;20073;-79
2023/04/16 07:23:59;;;;;;;35.05;18.60;;;;;;;8.80;100.00;102262.13;5001077;28;20037;-79
2023/04/16 07:26:25;;;;;;;36.17;18.85;;;;;;;8.87;100.00;102261.06;5014700;28;20059;-81
2023/04/16 07:28:52;;;;;;;41.13;18.83;;;;;;;8.87;100.00;102263.72;5032564;28;20124;-80
2023/04/16 07:31:18;;;;;;;38.67;18.25;;;;;;;8.92;100.00;102271.56;5033235;28;20045;-80
2023/04/16 07:33:44;;;;;;;32.95;17.48;;;;;;;8.83;100.00;102267.34;5012575;28;20092;-80
2023/04/16 07:36:11;;;;;;;34.45;17.42;;;;;;;8.89;100.00;102271.63;5013055;28;20104;-80
2023/04/16 07:38:37;;;;;;;32.28;17.48;;;;;;;8.93;100.00;102271.53;5028089;28;20061;-83
2023/04/16 07:41:03;;;;;;;33.55;17.20;;;;;;;8.94;100.00;102272.41;5031881;28;20041;-80
2023/04/16 07:43:30;;;;;;;31.08;16.10;;;;;;;8.93;100.00;102270.66;5012861;28;20112;-80
2023/04/16 07:45:59;;;;;;;32.80;16.42;;;;;;;8.92;100.00;102268.91;5008501;28;20029;-80
2023/04/16 07:48:25;;;;;;;31.73;16.45;;;;;;;8.97;100.00;102279.47;5038670;28;20510;-81
2023/04/16 07:50:52;;;;;;;26.85;15.40;;;;;;;9.02;100.00;102277.53;5032138;28;20382;-79
2023/04/16 07:53:18;;;;;;;28.27;15.82;;;;;;;8.97;100.00;102287.44;5031406;28;20413;-78
2023/04/16 07:55:44;;;;;;;29.77;15.02;;;;;;;8.93;100.00;102287.53;5032643;28;20084;-79
2023/04/16 07:58:11;;;;;;;27.42;14.80;;;;;;;9.05;100.00;102296.09;5009738;28;20124;-79
2023/04/16 08:00:38;;;;;;;28.40;15.05;;;;;;;8.98;100.00;102291.84;4997207;28;20041;-81
2023/04/16 08:03:04;;;;;;;30.77;15.18;;;;;;;8.89;100.00;102291.19;5023531;28;20092;-79
2023/04/16 08:05:30;;;;;;;32.22;16.35;;;;;;;8.97;100.00;102298.09;5032287;28;20060;-80
2023/04/16 08:07:57;;;;;;;30.17;15.15;;;;;;;9.01;100.00;102297.97;5033024;28;20107;-80
2023/04/16 08:10:23;;;;;;;33.70;14.20;;;;;;;9.08;100.00;102299.56;5033181;28;20109;-80
2023/04/16 08:12:49;;;;;;;25.63;14.68;;;;;;;9.03;100.00;102306.78;5014776;28;20037;-81
2023/04/16 08:15:16;;;;;;;24.92;14.52;;;;;;;8.92;100.00;102303.53;5030982;28;20395;-81
2023/04/16 08:17:42;;;;;;;29.90;14.45;;;;;;;8.91;100.00;102305.31;5030031;28;20083;-81
2023/04/16 08:20:09;;;;;;;31.55;16.05;;;;;;;9.03;100.00;102312.13;5032242;28;20395;-79
2023/04/16 08:22:35;;;;;;;28.55;14.32;;;;;;;9.03;100.00;102305.94;5010556;28;20055;-81
2023/04/16 08:25:03;;;;;;;29.92;14.93;;;;;;;9.17;100.00;102306.47;5013748;28;20048;-80
2023/04/16 08:27:29;;;;;;;26.30;14.27;;;;;;;9.29;100.00;102307.91;4982612;28;20395;-80
2023/04/16 08:29:56;;;;;;;30.85;14.15;;;;;;;9.25;100.00;102317.78;5014001;28;20051;-80
2023/04/16 08:32:22;;;;;;;33.78;14.93;;;;;;;9.23;100.00;102318.75;5029986;28;20034;-80
2023/04/16 08:34:48;;;;;;;29.48;13.45;;;;;;;9.25;100.00;102317.78;5031079;28;20112;-80
2023/04/16 08:37:15;;;;;;;23.60;12.23;;;;;;;9.25;100.00;102312.44;5014437;28;20033;-80
2023/04/16 08:39:41;;;;;;;27.65;12.63;;;;;;;9.35;100.00;102312.22;5013260;28;20038;-80
2023/04/16 08:42:13;;;;;;;30.30;13.27;;;;;;;9.40;100.00;102321.84;5021063;28;20045;-82
2023/04/16 08:44:45;;;;;;;23.52;12.15;;;;;;;9.29;100.00;102322.09;5031846;28;20034;-81
2023/04/16 08:47:12;;;;;;;23.70;11.65;;;;;;;9.21;100.00;102321.44;5014046;28;20433;-80
2023/04/16 08:49:44;;;;;;;30.13;12.30;;;;;;;9.40;100.00;102335.16;5022180;28;20164;-81
2023/04/16 08:52:15;;;;;;;27.90;12.52;;;;;;;9.47;100.00;102336.75;5012869;28;20037;-80
2023/04/16 08:55:03;;;;;;;23.35;11.88;;;;;;;9.51;100.00;102341.06;5010503;28;20076;-81
2023/04/16 08:57:39;;;;;;;24.02;12.02;;;;;;;9.35;100.00;102338.84;5003816;28;20041;-80
2023/04/16 09:00:08;;;;;;;24.80;11.98;;;;;;;9.32;100.00;102351.34;5027929;28;20029;-81
2023/04/16 09:02:34;;;;;;;26.95;12.68;;;;;;;9.34;100.00;102348.66;5039762;28;20387;-80
2023/04/16 09:05:03;;;;;;;24.23;12.10;;;;;;;9.37;100.00;102347.69;5013244;28;20054;-81
2023/04/16 09:07:31;;;;;;;25.20;11.68;;;;;;;9.34;100.00;102351.31;5030789;28;20038;-80
2023/04/16 09:09:59;;;;;;;27.10;11.52;;;;;;;9.46;100.00;102352.78;5031031;28;20029;-79
2023/04/16 09:12:26;;;;;;;22.27;12.45;;;;;;;9.51;100.00;102350.88;5030326;28;20148;-79
2023/04/16 09:14:53;;;;;;;23.88;12.48;;;;;;;9.54;100.00;102350.78;4993050;28;20030;-80
2023/04/16 09:17:19;;;;;;;24.52;11.25;;;;;;;9.56;100.00;102342.72;5010330;28;20487;-80
2023/04/16 09:19:46;;;;;;;24.85;10.73;;;;;;;9.64;100.00;102354.94;5030395;28;20037;-80
2023/04/16 09:22:12;;;;;;;21.23;9.43;;;;;;;9.66;100.00;102345.13;5014080;28;20498;-80
2023/04/16 09:24:39;;;;;;;15.27;9.07;;;;;;;9.63;100.00;102350.53;5009129;28;20108;-81
2023/04/16 09:27:07;;;;;;;16.48;8.52;;;;;;;9.65;100.00;102354.06;5011042;28;20493;-80
2023/04/16 09:29:35;;;;;;;18.33;8.60;;;;;;;9.75;100.00;102348.44;5030910;28;20056;-80
2023/04/16 09:32:03;;;;;;;16.73;7.95;;;;;;;9.81;100.00;102350.94;5012992;28;20445;-80
2023/04/16 09:34:31;;;;;;;19.15;8.95;;;;;;;9.97;100.00;102362.94;5002058;28;20044;-80
2023/04/16 09:37:15;;;;;;;13.48;8.27;;;;;;;9.87;100.00;102364.97;5016898;28;20041;-81
2023/04/16 09:39:43;;;;;;;21.08;9.13;;;;;;;9.81;100.00;102365.16;5028624;28;20033;-80
2023/04/16 09:42:09;;;;;;;13.98;9.00;;;;;;;9.92;100.00;102370.19;5029532;28;20096;-80
2023/04/16 09:44:36;;;;;;;19.45;8.55;;;;;;;9.78;100.00;102369.69;5029259;28;20092;-80
2023/04/16 09:47:09;;;;;;;21.10;8.45;;;;;;;9.81;100.00;102375.81;5011649;28;20560;-79
2023/04/16 09:49:43;;;;;;;16.83;8.95;;;;;;;9.81;100.00;102380.28;5024381;28;20041;-80
2023/04/16 09:52:20;;;;;;;19.65;8.75;;;;;;;9.83;100.00;102381.13;5028841;28;20076;-80
2023/04/16 09:55:06;;;;;;;13.98;7.80;;;;;;;9.75;100.00;102383.09;5029082;28;20041;-80
2023/04/16 09:57:32;;;;;;;13.52;8.63;;;;;;;9.80;100.00;102378.53;5030556;28;20328;-80
2023/04/16 10:00:04;;;;;;;16.33;9.05;;;;;;;9.79;100.00;102379.47;4976738;28;20124;-80
2023/04/16 10:02:33;;;;;;;16.05;9.60;;;;;;;9.81;100.00;102385.63;5029055;28;20060;-79
2023/04/16 10:05:04;;;;;;;18.25;9.52;;;;;;;9.70;100.00;102384.09;5029711;28;20041;-80
2023/04/16 10:07:34;;;;;;;19.80;10.85;;;;;;;9.73;100.00;102388.50;5009682;28;20037;-80
2023/04/16 10:10:02;;;;;;;;;;;;;;;9.83;100.00;102395.31;5026671;28;20073;-80
2023/04/16 10:12:31;;;;;;;17.23;9.75;;;;;;;9.94;100.00;102386.16;5029039;28;20323;-80
2023/04/16 10:14:57;;;;;;;16.48;9.18;;;;;;;9.98;100.00;102388.69;5020385;28;20041;-80
2023/04/16 10:17:24;;;;;;;16.55;9.02;;;;;;;10.20;100.00;102390.75;5028425;28;20044;-80
2023/04/16 10:19:50;;;;;;;15.43;8.57;;;;;;;10.17;100.00;102388.16;5027920;28;20041;-80
2023/04/16 10:22:17;;;;;;;16.35;9.02;;;;;;;10.34;100.00;102390.38;5029280;28;20037;-80
2023/04/16 10:24:43;;;;;;;20.75;9.85;;;;;;;10.36;100.00;102394.75;4996477;28;20457;-80
2023/04/16 10:27:11;;;;;;;19.77;11.60;;;;;;;10.48;100.00;102396.19;5029911;28;20458;-80
2023/04/16 10:29:37;;;;;;;19.75;9.95;;;;;;;10.58;100.00;102399.44;5027870;28;20088;-81
2023/04/16 10:32:04;;;;;;;15.70;9.55;;;;;;;10.49;100.00;102397.91;5026013;28;20715;-81
2023/04/16 10:34:31;;;;;;;16.13;9.75;;;;;;;10.55;100.00;102403.09;5009643;28;20414;-80
2023/04/16 10:36:57;;;;;;;14.80;9.30;;;;;;;10.45;100.00;102396.25;5028983;28;20025;-80
2023/04/16 10:39:24;;;;;;;21.10;10.75;;;;;;;10.55;100.00;102395.06;5028729;28;20032;-80
2023/04/16 10:42:11;;;;;;;19.48;10.27;;;;;;;10.59;100.00;102402.06;5028798;28;20037;-80
2023/04/16 10:44:40;;;;;;;16.48;9.48;;;;;;;10.64;100.00;102394.81;5028389;28;20038;-80
2023/04/16 10:47:11;;;;;;;18.58;9.63;;;;;;;10.65;100.00;102407.22;5011379;28;20124;-80
2023/04/16 10:49:38;;;;;;;16.55;9.18;;;;;;;10.60;100.00;102402.94;5028320;28;20033;-81
2023/04/16 10:52:13;;;;;;;20.63;9.30;;;;;;;10.59;100.00;102401.19;4995581;28;20033;-80
2023/04/16 10:54:40;;;;;;;22.00;10.65;;;;;;;10.53;100.00;102406.72;5028596;28;20490;-81
2023/04/16 10:57:08;;;;;;;25.75;11.32;;;;;;;10.60;100.00;102402.94;5028177;28;20517;-80
2023/04/16 10:59:36;;;;;;;25.90;11.90;;;;;;;10.52;100.00;102399.63;5004534;28;20079;-81
2023/04/16 11:02:11;;;;;;;22.48;12.00;;;;;;;10.58;100.00;102394.09;4994760;28;20033;-80
2023/04/16 11:04:38;;;;;;;33.45;13.43;;;;;;;10.65;100.00;102403.69;5029529;28;20152;-88
2023/04/16 11:07:14;;;;;;;30.60;12.77;;;;;;;10.40;100.00;102403.53;4986230;28;20037;-80
2023/04/16 11:10:04;;;;;;;33.63;14.15;;;;;;;10.20;100.00;102398.75;5027581;28;20517;-81
2023/04/16 11:12:38;;;;;;;33.13;14.75;;;;;;;10.27;100.00;102397.66;5017974;28;20049;-80